createdAt,value
2019-01-29T00:00:14.711Z,1.10
2019-01-29T00:02:44.136Z,0.93
2019-01-29T00:05:12.646Z,1.07
2019-01-29T00:07:41.283Z,1.47
2019-01-29T00:10:09.647Z,1.30
2019-01-29T00:12:38.005Z,1.10
2019-01-29T00:15:09.733Z,1.33
2019-01-29T00:17:38.067Z,0.97
2019-01-29T00:20:08.995Z,1.40
2019-01-29T00:22:37.545Z,1.70
2019-01-29T00:25:07.582Z,1.90
2019-01-29T00:27:35.979Z,1.50
2019-01-29T00:30:07.569Z,1.30
2019-01-29T00:32:36.331Z,1.60
2019-01-29T00:35:06.237Z,1.57
2019-01-29T00:37:34.602Z,2.53
2019-01-29T00:40:03.122Z,1.27
2019-01-29T00:42:31.475Z,2.03
2019-01-29T00:44:59.843Z,1.47
2019-01-29T00:47:28.202Z,2.07
2019-01-29T00:49:56.562Z,1.53
2019-01-29T00:52:24.901Z,1.67
2019-01-29T00:54:53.262Z,1.50
2019-01-29T00:57:21.640Z,2.20
2019-01-29T00:59:49.986Z,1.60
2019-01-29T01:02:18.347Z,1.47
2019-01-29T01:04:46.745Z,2.00
2019-01-29T01:07:15.109Z,1.83
2019-01-29T01:09:43.760Z,2.03
2019-01-29T01:12:12.158Z,1.50
2019-01-29T01:14:40.591Z,1.30
2019-01-29T01:17:08.971Z,1.60
2019-01-29T01:19:37.989Z,1.83
2019-01-29T01:22:06.328Z,1.77
2019-01-29T01:24:34.714Z,1.47
2019-01-29T01:27:03.061Z,2.07
2019-01-29T01:29:31.486Z,2.40
2019-01-29T01:31:59.905Z,2.30
2019-01-29T01:34:28.223Z,1.63
2019-01-29T01:36:56.584Z,1.70
2019-01-29T01:39:24.960Z,1.60
2019-01-29T01:41:53.332Z,1.80
2019-01-29T01:44:21.687Z,1.77
2019-01-29T01:46:50.038Z,1.40
2019-01-29T01:49:18.470Z,2.07
2019-01-29T01:51:46.922Z,2.20
2019-01-29T01:54:15.306Z,2.13
2019-01-29T01:56:43.766Z,2.53
2019-01-29T01:59:12.140Z,2.27
2019-01-29T02:01:40.475Z,2.60
2019-01-29T02:04:08.832Z,2.03
2019-01-29T02:06:37.523Z,2.30
2019-01-29T02:09:07.328Z,2.50
2019-01-29T02:11:35.684Z,2.20
2019-01-29T02:14:04.053Z,2.00
2019-01-29T02:16:32.441Z,1.67
2019-01-29T02:19:00.788Z,2.33
2019-01-29T02:21:29.251Z,2.40
2019-01-29T02:23:57.665Z,2.83
2019-01-29T02:26:26.045Z,2.93
2019-01-29T02:28:54.395Z,1.67
2019-01-29T02:31:22.738Z,1.50
2019-01-29T02:33:51.115Z,1.97
2019-01-29T02:36:19.488Z,1.40
2019-01-29T02:38:48.053Z,1.70
2019-01-29T02:41:16.789Z,2.43
2019-01-29T02:43:45.171Z,1.70
2019-01-29T02:46:13.515Z,2.50
2019-01-29T02:48:41.920Z,2.60
2019-01-29T02:51:10.308Z,3.13
2019-01-29T02:53:38.686Z,1.90
2019-01-29T02:56:07.056Z,2.00
2019-01-29T02:58:35.430Z,1.40
2019-01-29T03:01:03.781Z,1.90
2019-01-29T03:03:32.161Z,1.73
2019-01-29T03:06:00.581Z,1.40
2019-01-29T03:08:28.939Z,2.00
2019-01-29T03:10:57.300Z,2.20
2019-01-29T03:13:25.774Z,1.50
2019-01-29T03:15:54.202Z,1.10
2019-01-29T03:18:22.557Z,1.40
2019-01-29T03:20:51.016Z,1.30
2019-01-29T03:23:27.284Z,2.10
2019-01-29T03:25:49.467Z,2.33
2019-01-29T03:28:17.911Z,1.40
2019-01-29T03:30:46.317Z,1.90
2019-01-29T03:33:14.635Z,1.30
2019-01-29T03:35:43.009Z,1.60
2019-01-29T03:38:11.335Z,2.10
2019-01-29T03:40:39.695Z,1.60
2019-01-29T03:43:08.100Z,1.57
2019-01-29T03:45:36.448Z,2.23
2019-01-29T03:48:04.807Z,1.40
2019-01-29T03:50:33.161Z,1.73
2019-01-29T03:53:01.517Z,2.03
2019-01-29T03:55:29.863Z,2.07
2019-01-29T03:57:58.250Z,2.20
2019-01-29T04:00:27.667Z,1.50
2019-01-29T04:02:56.011Z,1.50
2019-01-29T04:05:24.673Z,1.50
2019-01-29T04:07:53.153Z,1.67
2019-01-29T04:10:21.518Z,1.80
2019-01-29T04:12:49.898Z,3.33
2019-01-29T04:15:20.177Z,2.47
2019-01-29T04:17:48.515Z,1.40
2019-01-29T04:20:18.624Z,3.03
2019-01-29T04:22:47.032Z,1.20
2019-01-29T04:25:15.386Z,1.93
2019-01-29T04:27:43.712Z,2.13
2019-01-29T04:30:17.225Z,1.87
2019-01-29T04:32:45.573Z,2.00
2019-01-29T04:35:13.921Z,1.10
2019-01-29T04:37:42.271Z,1.53
2019-01-29T04:40:13.316Z,1.43
2019-01-29T04:42:41.710Z,1.30
2019-01-29T04:45:12.293Z,1.50
2019-01-29T04:47:40.637Z,2.07
2019-01-29T04:50:11.790Z,1.30
2019-01-29T04:52:40.574Z,1.30
2019-01-29T04:55:11.509Z,1.13
2019-01-29T04:57:39.862Z,1.50
2019-01-29T05:00:16.712Z,2.00
2019-01-29T05:02:45.066Z,2.00
2019-01-29T05:05:13.575Z,1.03
2019-01-29T05:07:41.929Z,2.03
2019-01-29T05:10:15.624Z,1.43
2019-01-29T05:12:43.970Z,1.20
2019-01-29T05:15:14.504Z,1.13
2019-01-29T05:17:42.860Z,1.10
2019-01-29T05:20:13.555Z,1.20
2019-01-29T05:22:41.936Z,0.93
2019-01-29T05:25:11.074Z,1.30
2019-01-29T05:27:39.444Z,1.03
2019-01-29T05:30:11.105Z,1.00
2019-01-29T05:32:39.503Z,1.40
2019-01-29T05:35:08.621Z,1.57
2019-01-29T05:37:36.985Z,1.20
2019-01-29T05:40:14.034Z,1.70
2019-01-29T05:42:42.390Z,1.70
2019-01-29T05:45:13.173Z,1.90
2019-01-29T05:47:41.543Z,1.63
2019-01-29T05:50:12.441Z,2.10
2019-01-29T05:52:40.872Z,1.67
2019-01-29T05:55:10.589Z,1.33
2019-01-29T05:57:39.245Z,1.50
2019-01-29T06:00:10.927Z,1.87
2019-01-29T06:02:39.279Z,1.70
2019-01-29T06:05:09.869Z,2.00
2019-01-29T06:07:38.231Z,2.63
2019-01-29T06:10:12.607Z,1.70
2019-01-29T06:12:41.347Z,2.30
2019-01-29T06:15:13.091Z,1.83
2019-01-29T06:17:41.481Z,2.60
2019-01-29T06:20:13.298Z,2.03
2019-01-29T06:22:41.651Z,3.50
2019-01-29T06:25:10.004Z,2.13
2019-01-29T06:27:38.358Z,3.13
2019-01-29T06:30:12.641Z,1.97
2019-01-29T06:32:41.283Z,2.20
2019-01-29T06:35:14.372Z,2.20
2019-01-29T06:37:42.729Z,2.00
2019-01-29T06:40:17.060Z,2.10
2019-01-29T06:42:45.700Z,1.45
2019-01-29T06:45:16.216Z,1.67
2019-01-29T06:47:44.859Z,2.13
2019-01-29T06:50:15.452Z,2.00
2019-01-29T06:52:43.890Z,2.17
2019-01-29T06:55:14.911Z,1.40
2019-01-29T06:57:43.232Z,2.03
2019-01-29T07:00:14.679Z,2.33
2019-01-29T07:02:43.396Z,1.17
2019-01-29T07:05:11.744Z,2.47
2019-01-29T07:07:40.126Z,2.40
2019-01-29T07:10:14.556Z,2.37
2019-01-29T07:12:43.199Z,1.75
2019-01-29T07:15:22.147Z,2.80
2019-01-29T07:17:50.504Z,1.93
2019-01-29T07:20:18.886Z,2.63
2019-01-29T07:22:47.276Z,2.27
2019-01-29T07:25:15.693Z,3.40
2019-01-29T07:27:43.990Z,1.67
2019-01-29T07:30:14.494Z,4.17
2019-01-29T07:32:42.860Z,2.60
2019-01-29T07:35:11.350Z,2.83
2019-01-29T07:37:39.707Z,3.40
2019-01-29T07:40:09.943Z,2.43
2019-01-29T07:42:38.684Z,3.77
2019-01-29T07:45:10.445Z,2.97
2019-01-29T07:47:38.796Z,2.80
2019-01-29T07:50:09.609Z,2.90
2019-01-29T07:52:38.472Z,3.63
2019-01-29T07:55:08.879Z,2.87
2019-01-29T07:57:37.306Z,2.00
2019-01-29T08:00:08.931Z,2.10
2019-01-29T08:02:37.303Z,2.47
2019-01-29T08:05:08.804Z,1.70
2019-01-29T08:07:37.580Z,2.37
2019-01-29T08:10:09.311Z,3.27
2019-01-29T08:12:37.678Z,2.70
2019-01-29T08:15:12.150Z,2.53
2019-01-29T08:17:40.844Z,1.77
2019-01-29T08:20:11.795Z,1.60
2019-01-29T08:22:40.168Z,1.73
2019-01-29T08:25:10.052Z,1.57
2019-01-29T08:27:38.414Z,1.10
2019-01-29T08:30:10.204Z,1.63
2019-01-29T08:32:38.559Z,1.77
2019-01-29T08:35:09.985Z,1.10
2019-01-29T08:37:38.323Z,1.23
2019-01-29T08:40:09.609Z,1.00
2019-01-29T08:42:38.008Z,1.50
2019-01-29T08:45:09.583Z,1.40
2019-01-29T08:47:37.975Z,1.30
2019-01-29T08:50:12.090Z,1.73
2019-01-29T08:52:40.750Z,1.05
2019-01-29T08:55:10.856Z,1.67
2019-01-29T08:57:39.449Z,1.83
2019-01-29T09:00:11.133Z,1.57
2019-01-29T09:02:39.521Z,1.30
2019-01-29T09:05:09.425Z,1.33
2019-01-29T09:07:37.806Z,2.83
2019-01-29T09:10:09.483Z,1.37
2019-01-29T09:12:37.872Z,1.70
2019-01-29T09:15:09.484Z,1.13
2019-01-29T09:17:37.892Z,1.10
2019-01-29T09:20:09.495Z,0.93
2019-01-29T09:22:38.281Z,0.80
2019-01-29T09:25:09.488Z,0.90
2019-01-29T09:27:38.174Z,0.80
2019-01-29T09:30:14.737Z,1.00
2019-01-29T09:32:43.795Z,1.10
2019-01-29T09:35:12.417Z,0.80
2019-01-29T09:37:40.762Z,1.13
2019-01-29T09:40:12.427Z,1.03
2019-01-29T09:42:41.199Z,1.10
2019-01-29T09:45:12.537Z,1.47
2019-01-29T09:47:40.932Z,1.53
2019-01-29T09:50:12.051Z,2.50
2019-01-29T09:52:40.426Z,2.30
2019-01-29T09:55:14.075Z,1.30
2019-01-29T09:57:42.445Z,1.60
2019-01-29T10:00:21.696Z,1.20
2019-01-29T10:02:50.132Z,1.97
2019-01-29T10:05:18.523Z,1.40
2019-01-29T10:07:47.299Z,1.20
2019-01-29T10:10:15.663Z,1.57
2019-01-29T10:12:44.040Z,2.20
2019-01-29T10:15:18.262Z,1.20
2019-01-29T10:17:47.275Z,1.90
2019-01-29T10:20:15.650Z,1.30
2019-01-29T10:22:44.027Z,1.83
2019-01-29T10:25:14.036Z,1.50
2019-01-29T10:27:42.403Z,2.80
2019-01-29T10:30:13.111Z,2.07
2019-01-29T10:32:41.458Z,1.97
2019-01-29T10:35:12.752Z,1.30
2019-01-29T10:37:41.112Z,3.40
2019-01-29T10:40:14.978Z,1.90
2019-01-29T10:42:43.648Z,1.92
2019-01-29T10:45:14.786Z,1.80
2019-01-29T10:47:43.594Z,2.40
2019-01-29T10:50:17.786Z,2.23
2019-01-29T10:52:46.520Z,1.60
2019-01-29T10:55:15.059Z,2.67
2019-01-29T10:57:43.440Z,2.40
2019-01-29T11:00:15.036Z,1.70
2019-01-29T11:02:43.425Z,2.50
2019-01-29T11:05:14.423Z,2.43
2019-01-29T11:07:42.766Z,2.07
2019-01-29T11:10:13.678Z,1.87
2019-01-29T11:12:42.035Z,1.63
2019-01-29T11:15:16.560Z,1.87
2019-01-29T11:17:45.222Z,1.50
2019-01-29T11:20:15.898Z,2.27
2019-01-29T11:22:44.275Z,2.07
2019-01-29T11:25:25.551Z,2.50
2019-01-29T11:27:54.034Z,1.43
2019-01-29T11:30:32.448Z,2.47
2019-01-29T11:33:00.806Z,2.70
2019-01-29T11:35:29.243Z,2.30
2019-01-29T11:37:57.594Z,2.63
2019-01-29T11:40:28.302Z,1.87
2019-01-29T11:42:56.753Z,2.00
2019-01-29T11:45:36.524Z,2.90
2019-01-29T11:48:04.884Z,4.40
2019-01-29T11:50:33.410Z,3.10
2019-01-29T11:53:01.742Z,3.83
2019-01-29T11:55:30.113Z,2.50
2019-01-29T11:57:58.487Z,2.73
2019-01-29T12:00:34.661Z,3.37
2019-01-29T12:03:03.471Z,3.47
2019-01-29T12:05:31.831Z,4.20
2019-01-29T12:08:00.251Z,5.40
2019-01-29T12:10:28.938Z,4.43
2019-01-29T12:12:57.412Z,2.87
2019-01-29T12:15:25.764Z,4.50
2019-01-29T12:17:54.114Z,3.07
2019-01-29T12:20:22.507Z,2.20
2019-01-29T12:22:50.904Z,4.23
2019-01-29T12:25:19.321Z,4.57
2019-01-29T12:27:47.823Z,4.67
2019-01-29T12:30:19.359Z,3.20
2019-01-29T12:32:47.900Z,2.73
2019-01-29T12:35:16.273Z,3.13
2019-01-29T12:37:44.654Z,3.13
2019-01-29T12:40:13.062Z,3.47
2019-01-29T12:42:41.412Z,3.63
2019-01-29T12:45:12.673Z,3.33
2019-01-29T12:47:41.040Z,2.90
2019-01-29T12:50:18.308Z,3.13
2019-01-29T12:52:57.181Z,3.30
2019-01-29T12:55:25.593Z,2.83
2019-01-29T12:57:53.938Z,2.60
2019-01-29T13:00:23.984Z,2.80
2019-01-29T13:02:52.388Z,3.87
2019-01-29T13:05:20.821Z,2.63
2019-01-29T13:07:49.228Z,2.50
2019-01-29T13:10:28.127Z,3.37
2019-01-29T13:12:56.540Z,3.90
2019-01-29T13:15:27.577Z,4.13
2019-01-29T13:17:56.571Z,4.20
2019-01-29T13:20:25.057Z,6.00
2019-01-29T13:22:53.465Z,3.33
2019-01-29T13:25:21.971Z,3.57
2019-01-29T13:27:50.372Z,4.50
2019-01-29T13:30:27.360Z,3.00
2019-01-29T13:32:55.812Z,5.97
2019-01-29T13:35:30.122Z,3.90
2019-01-29T13:37:58.926Z,3.60
2019-01-29T13:40:27.323Z,3.47
2019-01-29T13:42:55.694Z,3.77
2019-01-29T13:45:24.064Z,3.27
2019-01-29T13:47:52.468Z,5.30
2019-01-29T13:50:23.916Z,3.23
2019-01-29T13:52:52.353Z,2.93
2019-01-29T13:55:20.744Z,4.00
2019-01-29T13:57:49.177Z,3.63
2019-01-29T14:00:23.633Z,4.27
2019-01-29T14:02:51.986Z,5.03
2019-01-29T14:05:20.334Z,3.23
2019-01-29T14:07:48.688Z,4.77
2019-01-29T14:10:17.064Z,2.77
2019-01-29T14:12:45.605Z,3.43
2019-01-29T14:15:21.630Z,2.87
2019-01-29T14:17:49.984Z,3.17
2019-01-29T14:20:19.559Z,2.77
2019-01-29T14:22:49.481Z,4.03
2019-01-29T14:25:17.933Z,6.73
2019-01-29T14:27:49.258Z,4.47
2019-01-29T14:30:23.422Z,3.90
2019-01-29T14:32:52.099Z,3.70
2019-01-29T14:35:22.124Z,4.67
2019-01-29T14:38:11.960Z,4.37
2019-01-29T14:40:40.401Z,6.37
2019-01-29T14:43:11.455Z,4.37
2019-01-29T14:45:40.051Z,4.97
2019-01-29T14:48:08.427Z,5.37
2019-01-29T14:50:37.227Z,4.67
2019-01-29T14:53:05.595Z,3.60
2019-01-29T14:55:33.954Z,3.90
2019-01-29T14:58:02.663Z,3.50
2019-01-29T15:00:37.497Z,3.77
2019-01-29T15:05:33.666Z,2.45
2019-01-29T15:08:02.212Z,2.77
2019-01-29T15:10:32.597Z,3.00
2019-01-29T15:13:00.984Z,2.97
2019-01-29T15:15:34.528Z,3.17
2019-01-29T15:18:14.064Z,2.90
2019-01-29T15:20:42.444Z,2.70
2019-01-29T15:23:10.825Z,2.77
2019-01-29T15:25:39.192Z,2.30
2019-01-29T15:28:07.579Z,5.87
2019-01-29T15:30:35.924Z,4.20
2019-01-29T15:33:04.302Z,2.90
2019-01-29T15:35:32.729Z,3.00
2019-01-29T15:38:01.103Z,3.30
2019-01-29T15:40:29.455Z,3.10
2019-01-29T15:42:57.891Z,2.30
2019-01-29T15:45:27.591Z,3.20
2019-01-29T15:47:55.986Z,3.43
2019-01-29T15:50:30.925Z,3.03
2019-01-29T15:52:59.139Z,3.08
2019-01-29T15:55:27.495Z,2.90
2019-01-29T15:57:56.014Z,4.23
2019-01-29T16:00:36.593Z,2.93
2019-01-29T16:03:04.992Z,3.20
2019-01-29T16:05:35.082Z,2.97
2019-01-29T16:08:04.091Z,2.60
2019-01-29T16:10:39.839Z,3.33
2019-01-29T16:13:05.694Z,2.50
2019-01-29T16:15:34.096Z,3.03
2019-01-29T16:18:02.417Z,3.67
2019-01-29T16:20:30.870Z,3.50
2019-01-29T16:22:59.302Z,2.87
2019-01-29T16:25:29.525Z,3.43
2019-01-29T16:27:57.903Z,2.60
2019-01-29T16:30:30.453Z,3.50
2019-01-29T16:32:58.820Z,2.73
2019-01-29T16:35:32.158Z,2.67
2019-01-29T16:38:00.616Z,2.30
2019-01-29T16:40:31.430Z,2.20
2019-01-29T16:42:59.916Z,2.83
2019-01-29T16:45:32.914Z,2.13
2019-01-29T16:48:02.241Z,2.20
2019-01-29T16:50:30.597Z,2.07
2019-01-29T16:52:59.406Z,1.37
2019-01-29T16:55:27.819Z,2.10
2019-01-29T16:57:56.214Z,2.97
2019-01-29T17:00:30.004Z,2.73
2019-01-29T17:02:58.352Z,3.57
2019-01-29T17:05:27.768Z,3.93
2019-01-29T17:07:56.110Z,3.27
2019-01-29T17:10:27.205Z,3.70
2019-01-29T17:12:55.555Z,3.33
2019-01-29T17:15:35.196Z,4.30
2019-01-29T17:18:03.555Z,4.30
2019-01-29T17:20:34.781Z,3.87
2019-01-29T17:23:03.241Z,3.73
2019-01-29T17:25:31.591Z,3.60
2019-01-29T17:28:00.586Z,4.10
2019-01-29T17:30:37.259Z,4.43
2019-01-29T17:33:06.624Z,3.77
2019-01-29T17:35:38.344Z,5.00
2019-01-29T17:38:06.726Z,4.10
2019-01-29T17:40:35.563Z,5.67
2019-01-29T17:43:03.915Z,5.20
2019-01-29T17:45:47.476Z,5.90
2019-01-29T17:48:15.846Z,4.00
2019-01-29T17:50:45.386Z,4.57
2019-01-29T17:53:13.765Z,3.40
2019-01-29T17:55:43.368Z,3.93
2019-01-29T17:58:12.809Z,3.53
2019-01-29T18:00:49.115Z,3.93
2019-01-29T18:03:17.611Z,4.17
2019-01-29T18:05:46.012Z,4.67
2019-01-29T18:08:14.401Z,3.87
2019-01-29T18:10:42.763Z,3.60
2019-01-29T18:13:11.146Z,3.87
2019-01-29T18:15:39.546Z,3.63
2019-01-29T18:18:07.900Z,3.30
2019-01-29T18:20:38.895Z,3.03
2019-01-29T18:23:07.301Z,2.67
2019-01-29T18:25:35.681Z,3.73
2019-01-29T18:28:04.406Z,2.53
2019-01-29T18:30:34.768Z,2.83
2019-01-29T18:33:03.173Z,3.27
2019-01-29T18:35:31.592Z,3.40
2019-01-29T18:37:59.928Z,3.40
2019-01-29T18:40:31.436Z,3.80
2019-01-29T18:42:59.792Z,2.90
2019-01-29T18:45:28.282Z,2.63
2019-01-29T18:47:56.617Z,3.20
2019-01-29T18:50:25.041Z,2.27
2019-01-29T18:52:53.477Z,3.60
2019-01-29T18:55:21.862Z,2.67
2019-01-29T18:57:50.288Z,3.13
2019-01-29T19:00:24.856Z,3.00
2019-01-29T19:02:53.251Z,3.58
2019-01-29T19:05:23.571Z,2.80
2019-01-29T19:07:51.980Z,3.07
2019-01-29T19:10:21.618Z,2.80
2019-01-29T19:12:50.137Z,2.97
2019-01-29T19:15:23.470Z,2.93
2019-01-29T19:17:51.910Z,2.77
2019-01-29T19:20:22.543Z,2.37
2019-01-29T19:22:51.355Z,2.57
2019-01-29T19:25:19.730Z,2.07
2019-01-29T19:27:48.168Z,1.80
2019-01-29T19:30:28.469Z,2.40
2019-01-29T19:33:00.112Z,1.53
2019-01-29T19:35:28.678Z,2.40
2019-01-29T19:37:57.087Z,2.07
2019-01-29T19:40:25.442Z,2.33
2019-01-29T19:42:53.771Z,2.03
2019-01-29T19:45:31.387Z,1.87
2019-01-29T19:48:00.561Z,2.10
2019-01-29T19:50:31.088Z,2.40
2019-01-29T19:52:59.467Z,1.80
2019-01-29T19:55:28.008Z,1.67
2019-01-29T19:57:56.389Z,2.93
2019-01-29T20:00:33.437Z,3.00
2019-01-29T20:03:01.804Z,3.10
2019-01-29T20:05:30.225Z,3.03
2019-01-29T20:07:58.807Z,2.97
2019-01-29T20:10:27.241Z,4.70
2019-01-29T20:12:55.676Z,3.80
2019-01-29T20:15:25.533Z,3.67
2019-01-29T20:17:55.966Z,3.87
2019-01-29T20:20:27.430Z,3.40
2019-01-29T20:22:55.831Z,4.33
2019-01-29T20:25:24.230Z,3.97
2019-01-29T20:27:53.229Z,3.70
2019-01-29T20:30:24.205Z,3.83
2019-01-29T20:32:53.675Z,2.90
2019-01-29T20:35:22.188Z,3.07
2019-01-29T20:37:50.543Z,4.00
2019-01-29T20:40:21.655Z,4.37
2019-01-29T20:42:50.006Z,3.80
2019-01-29T20:45:18.572Z,3.10
2019-01-29T20:47:47.071Z,2.93
2019-01-29T20:50:27.621Z,3.83
2019-01-29T20:52:55.980Z,3.43
2019-01-29T20:55:24.347Z,2.80
2019-01-29T20:57:52.763Z,3.17
2019-01-29T21:00:29.119Z,3.40
2019-01-29T21:02:57.491Z,3.47
2019-01-29T21:05:25.886Z,2.90
2019-01-29T21:07:54.336Z,4.17
2019-01-29T21:10:24.012Z,3.10
2019-01-29T21:12:52.393Z,2.80
2019-01-29T21:15:22.930Z,3.47
2019-01-29T21:17:51.311Z,4.30
2019-01-29T21:20:21.923Z,3.77
2019-01-29T21:22:50.263Z,2.73
2019-01-29T21:25:19.080Z,3.60
2019-01-29T21:27:47.437Z,3.60
2019-01-29T21:30:19.314Z,4.50
2019-01-29T21:32:47.702Z,3.60
2019-01-29T21:35:16.057Z,3.10
2019-01-29T21:37:44.426Z,2.87
2019-01-29T21:40:14.658Z,4.13
2019-01-29T21:42:43.018Z,4.07
2019-01-29T21:45:14.302Z,3.20
2019-01-29T21:47:42.682Z,3.67
2019-01-29T21:50:14.387Z,2.77
2019-01-29T21:52:42.796Z,3.47
2019-01-29T21:55:13.017Z,3.83
2019-01-29T21:57:41.424Z,3.60
2019-01-29T22:00:15.684Z,3.60
2019-01-29T22:02:44.320Z,4.05
2019-01-29T22:05:13.625Z,2.60
2019-01-29T22:07:41.985Z,2.97
2019-01-29T22:10:12.583Z,3.30
2019-01-29T22:12:41.065Z,3.70
2019-01-29T22:15:12.545Z,3.40
2019-01-29T22:17:40.895Z,3.17
2019-01-29T22:20:12.585Z,3.50
2019-01-29T22:22:40.942Z,3.30
2019-01-29T22:25:12.899Z,3.50
2019-01-29T22:27:41.276Z,3.20
2019-01-29T22:30:15.591Z,3.70
2019-01-29T22:32:44.758Z,4.72
2019-01-29T22:35:13.139Z,4.00
2019-01-29T22:37:41.534Z,3.33
2019-01-29T22:40:18.228Z,3.93
2019-01-29T22:42:46.954Z,3.47
2019-01-29T22:45:19.181Z,3.90
2019-01-29T22:47:47.549Z,3.67
2019-01-29T22:50:18.317Z,4.13
2019-01-29T22:52:46.689Z,3.97
2019-01-29T22:55:15.110Z,2.90
2019-01-29T22:57:43.463Z,4.40
2019-01-29T23:00:28.368Z,3.50
2019-01-29T23:02:56.745Z,4.12
2019-01-29T23:05:25.198Z,3.53
2019-01-29T23:07:53.556Z,3.23
2019-01-29T23:10:22.437Z,3.97
2019-01-29T23:12:50.793Z,3.83
2019-01-29T23:15:19.626Z,3.47
2019-01-29T23:17:47.981Z,3.53
2019-01-29T23:20:17.190Z,2.37
2019-01-29T23:22:45.589Z,3.37
2019-01-29T23:25:13.966Z,3.10
2019-01-29T23:27:42.323Z,3.10
2019-01-29T23:30:14.334Z,2.53
2019-01-29T23:32:42.702Z,2.83
2019-01-29T23:35:11.087Z,3.17
2019-01-29T23:37:39.484Z,3.43
2019-01-29T23:40:14.092Z,3.40
2019-01-29T23:42:42.444Z,2.80
2019-01-29T23:45:13.015Z,2.87
2019-01-29T23:47:41.395Z,3.33
2019-01-29T23:50:14.614Z,3.00
2019-01-29T23:52:42.999Z,3.20
2019-01-29T23:55:11.890Z,3.00
2019-01-29T23:57:40.234Z,2.33
